METAR Data
IDs: Format: Raw Decoded Include TAF

Data at: 2120 UTC 20 Nov 2018

K0F2 202115Z AUTO 00000KT 10SM CLR 14/M02 A3033 RMK AO2 T01361018
K0F2 202055Z AUTO 00000KT 10SM CLR 13/M02 A3033 RMK AO2 T01311020
K0F2 202035Z AUTO 08005KT 10SM CLR 14/M02 A3033 RMK AO2 T01361016
K0F2 202015Z AUTO 00000KT 10SM CLR 13/M02 A3034 RMK AO2 T01291021
K0F2 201955Z AUTO 08004KT 10SM CLR 14/M01 A3034 RMK AO2 T01391014
K0F2 201935Z AUTO 08005KT 10SM CLR 13/M02 A3035 RMK AO2 T01341018
K0F2 201915Z AUTO 00000KT 10SM CLR 13/M02 A3036 RMK AO2 T01281020
K0F2 201855Z AUTO 09004KT 10SM CLR 13/M02 A3037 RMK AO2 T01281021
K0F2 201835Z AUTO 05003KT 10SM CLR 13/M02 A3038 RMK AO2 T01301019
K0F2 201815Z AUTO 05004KT 10SM CLR 12/M02 A3039 RMK AO2 T01231020
K0F2 201755Z AUTO 06004KT 10SM CLR 12/M02 A3039 RMK AO2 T01231017 10124 20000
K0F2 201735Z AUTO 36003KT 10SM CLR 12/M01 A3040 RMK AO2 T01161015
K0F2 201715Z AUTO 07003KT 10SM CLR 11/M01 A3041 RMK AO2 T01131014
K0F2 201655Z AUTO 05004KT 10SM CLR 10/M01 A3042 RMK AO2 T01031013
K0F2 201635Z AUTO 08003KT 10SM CLR 10/M01 A3042 RMK AO2 T01001009
K0F2 201615Z AUTO 09003KT 10SM CLR 09/00 A3042 RMK AO2 T00900002
K0F2 201555Z AUTO 00000KT 10SM CLR 09/00 A3041 RMK AO2 T00850004
K0F2 201535Z AUTO 03005KT 10SM CLR 08/00 A3041 RMK AO2 T00760003
K0F2 201515Z AUTO 03003KT 10SM CLR 06/00 A3041 RMK AO2 T00630004
K0F2 201455Z AUTO 00000KT 10SM CLR 06/00 A3040 RMK AO2 T00550003
K0F2 201435Z AUTO 33003KT 10SM CLR 04/01 A3039 RMK AO2 T00440005
K0F2 201415Z AUTO 32003KT 10SM CLR 03/01 A3039 RMK AO2 T00280009
K0F2 201355Z AUTO 33003KT 10SM CLR 01/00 A3038 RMK AO2 T00061005
K0F2 201335Z AUTO 33003KT 10SM CLR 00/M02 A3037 RMK AO2 T00001016
K0F2 201315Z AUTO 34003KT 10SM CLR 01/M01 A3037 RMK AO2 T00051014
K0F2 201255Z AUTO 33003KT 10SM CLR 00/M01 A3037 RMK AO2 T00031014
K0F2 201235Z AUTO 34003KT 10SM CLR 01/M01 A3036 RMK AO2 T00061011
K0F2 201215Z AUTO 34004KT 10SM CLR 01/M01 A3035 RMK AO2 T00091010
K0F2 201155Z AUTO 35003KT 10SM CLR 01/M01 A3034 RMK AO2 T00071010 10048 20006
K0F2 201135Z AUTO 35003KT 10SM CLR 01/M01 A3034 RMK AO2 T00091010
K0F2 201115Z AUTO 34004KT 10SM CLR 01/M01 A3034 RMK AO2 T00071010
K0F2 201055Z AUTO 36003KT 10SM CLR 02/00 A3033 RMK AO2 T00241005
K0F2 201035Z AUTO 01003KT 10SM CLR 03/00 A3033 RMK AO2 T00261004
K0F2 201015Z AUTO 00000KT 10SM CLR 03/00 A3033 RMK AO2 T00261003
K0F2 200955Z AUTO 02003KT 10SM CLR 02/00 A3032 RMK AO2 T00231003
K0F2 200935Z AUTO 36003KT 10SM CLR 03/00 A3032 RMK AO2 T00261002
K0F2 200915Z AUTO 35004KT 10SM CLR 03/00 A3032 RMK AO2 T00310000
K0F2 200855Z AUTO 35004KT 10SM CLR 04/00 A3032 RMK AO2 T00350000
K0F2 200835Z AUTO 36005KT 10SM CLR 04/00 A3032 RMK AO2 T00390000
K0F2 200815Z AUTO 36005KT 10SM CLR 04/00 A3032 RMK AO2 T00400000
K0F2 200755Z AUTO 36004KT 10SM CLR 04/00 A3031 RMK AO2 T00430002
K0F2 200735Z AUTO 36005KT 10SM CLR 05/00 A3030 RMK AO2 T00460003
K0F2 200715Z AUTO 36004KT 10SM CLR 05/01 A3030 RMK AO2 T00480005
K0F2 200655Z AUTO 35005KT 10SM CLR 03/01 A3029 RMK AO2 T00340005
K0F2 200635Z AUTO 34006KT 10SM CLR 03/01 A3029 RMK AO2 T00280005
K0F2 200620Z AUTO 33004KT 10SM CLR 03/01 A3029 RMK AO2 T00330005
K0F2 200555Z AUTO 32005KT 10SM CLR 03/00 A3029 RMK AO2 T00330003 10082 20001 401231031
K0F2 200535Z AUTO 33005KT 10SM CLR 03/00 A3029 RMK AO2 T00330000
K0F2 200515Z AUTO 32004KT 10SM CLR 02/00 A3029 RMK AO2 T00151001
K0F2 200455Z AUTO 32003KT 10SM CLR 01/00 A3029 RMK AO2 T00121002
K0F2 200435Z AUTO 00000KT 10SM CLR 00/M01 A3028 RMK AO2 T00031009
K0F2 200415Z AUTO 00000KT 10SM CLR 01/00 A3027 RMK AO2 T00081002
K0F2 200355Z AUTO 00000KT 10SM CLR 01/00 A3027 RMK AO2 T00131005
K0F2 200335Z AUTO 00000KT 10SM CLR 01/M01 A3026 RMK AO2 T00051006
K0F2 200315Z AUTO 00000KT 10SM CLR 01/00 A3025 RMK AO2 T00131003
K0F2 200255Z AUTO 10SM CLR 01/00 A3025 RMK AO2 T00121002
K0F2 200235Z AUTO 10SM CLR 02/00 A3025 RMK AO2 T00170000
K0F2 200215Z AUTO 10SM CLR 04/00 A3024 RMK AO2 T00350000
K0F2 200155Z AUTO 10SM CLR 03/00 A3024 RMK AO2 T00330000
K0F2 200135Z AUTO 10SM CLR 04/00 A3023 RMK AO2 T00390002
K0F2 200115Z AUTO 10SM CLR 03/00 A3023 RMK AO2 T00320000
K0F2 200055Z AUTO 10SM CLR 05/00 A3022 RMK AO2 T00450002
K0F2 200035Z AUTO 00000KT 10SM CLR 07/01 A3021 RMK AO2 T00660005
K0F2 200015Z AUTO 00000KT 10SM CLR 08/01 A3020 RMK AO2 T00760010
K0F2 192355Z AUTO 00000KT 10SM CLR 08/01 A3019 RMK AO2 T00810012 10123 20081
K0F2 192335Z AUTO 00000KT 10SM CLR 09/01 A3019 RMK AO2 T00910011
K0F2 192315Z AUTO 00000KT 10SM CLR 10/01 A3018 RMK AO2 T01000010
K0F2 192255Z AUTO 33004KT 10SM CLR 11/01 A3017 RMK AO2 T01080010
K0F2 192235Z AUTO 34005KT 10SM CLR 12/01 A3017 RMK AO2 T01150006
K0F2 192215Z AUTO 31005KT 10SM CLR 12/01 A3017 RMK AO2 T01170008
K0F2 192155Z AUTO 29005KT 10SM CLR 12/01 A3017 RMK AO2 T01200006
K0F2 192135Z AUTO 32005KT 10SM CLR 12/01 A3017 RMK AO2 T01200007
K0F2 192115Z AUTO 30006KT 10SM CLR 12/01 A3017 RMK AO2 T01210005
K0F2 192055Z AUTO 00000KT 10SM CLR 12/00 A3017 RMK AO2 T01150002
K0F2 192035Z AUTO 30003KT 10SM CLR 12/01 A3017 RMK AO2 T01200005
K0F2 192015Z AUTO 33007KT 10SM CLR 12/00 A3017 RMK AO2 T01190004
K0F2 191955Z AUTO 27006KT 10SM CLR 11/00 A3018 RMK AO2 T01130000
K0F2 191935Z AUTO 33006KT 10SM CLR 11/00 A3019 RMK AO2 T01100000
K0F2 191915Z AUTO 30004KT 10SM CLR 11/00 A3019 RMK AO2 T01060000
K0F2 191855Z AUTO 31003KT 10SM CLR 10/00 A3020 RMK AO2 T01020000
K0F2 191835Z AUTO 28005KT 10SM CLR 10/00 A3021 RMK AO2 T00990000
K0F2 191815Z AUTO 32005KT 10SM CLR 09/00 A3022 RMK AO2 T00921001
K0F2 191755Z AUTO 34004KT 10SM CLR 09/00 A3023 RMK AO2 T00881001 10088 21031
K0F2 191735Z AUTO 00000KT 10SM CLR 09/00 A3024 RMK AO2 T00851002
K0F2 191715Z AUTO 00000KT 10SM CLR 08/M01 A3024 RMK AO2 T00781007
K0F2 191655Z AUTO 00000KT 10SM CLR 07/M01 A3025 RMK AO2 T00661010
K0F2 191635Z AUTO 00000KT 10SM CLR 06/M01 A3025 RMK AO2 T00591011
K0F2 191615Z AUTO 00000KT 10SM CLR 05/M01 A3025 RMK AO2 T00511012
K0F2 191555Z AUTO 00000KT 10SM CLR 04/M01 A3025 RMK AO2 T00441013
K0F2 191535Z AUTO 00000KT 10SM CLR 04/M02 A3025 RMK AO2 T00361016
K0F2 191515Z AUTO 00000KT 10SM CLR 03/M01 A3025 RMK AO2 T00301013
K0F2 191455Z AUTO 00000KT 10SM CLR 02/00 A3025 RMK AO2 T00211001
K0F2 191435Z AUTO 00000KT 10SM CLR 01/00 A3024 RMK AO2 T00091004
K0F2 191415Z AUTO 00000KT 10SM CLR 00/M01 A3024 RMK AO2 T10021012
K0F2 191355Z AUTO 00000KT 10SM CLR M02/M02 A3023 RMK AO2 T10171025
K0F2 191335Z AUTO 00000KT 10SM CLR M02/M03 A3023 RMK AO2 T10211027
K0F2 191315Z AUTO 00000KT 10SM CLR M03/M04 A3022 RMK AO2 T10301036
K0F2 191255Z AUTO 00000KT 10SM CLR M03/M04 A3022 RMK AO2 T10291036
K0F2 191235Z AUTO 00000KT 10SM CLR M02/M03 A3021 RMK AO2 T10181027
K0F2 191215Z AUTO 00000KT 10SM CLR M01/M02 A3020 RMK AO2 T10151025
K0F2 191155Z AUTO 00000KT 10SM CLR M01/M02 A3020 RMK AO2 T10151025 10005 21020
K0F2 191135Z AUTO 00000KT 10SM CLR M01/M02 A3020 RMK AO2 T10111022
K0F2 191115Z AUTO 00000KT 10SM CLR M01/M02 A3020 RMK AO2 T10131022
K0F2 191055Z AUTO 00000KT 10SM BKN033 M01/M02 A3020 RMK AO2 T10111020
K0F2 191035Z AUTO 00000KT 10SM OVC035 M01/M02 A3021 RMK AO2 T10101019
K0F2 191015Z AUTO 00000KT 10SM SCT037 M01/M02 A3021 RMK AO2 T10141024
K0F2 190955Z AUTO 00000KT 10SM CLR M01/M02 A3021 RMK AO2 T10141021
K0F2 190935Z AUTO 00000KT 10SM BKN034 M01/M02 A3021 RMK AO2 T10121020